sensor_id;sensor_type;location;lat;lon;timestamp;P1;durP1;ratioP1;P2;durP2;ratioP2
57832;SDS011;43667;53.036;6.740;2022-11-20T00:00:48;22.77;;;17.23;;
57832;SDS011;43667;53.036;6.740;2022-11-20T00:03:14;24.60;;;17.52;;
57832;SDS011;43667;53.036;6.740;2022-11-20T00:05:40;23.98;;;17.85;;
57832;SDS011;43667;53.036;6.740;2022-11-20T00:08:05;23.60;;;16.70;;
57832;SDS011;43667;53.036;6.740;2022-11-20T00:10:31;21.80;;;16.88;;
57832;SDS011;43667;53.036;6.740;2022-11-20T00:12:57;22.05;;;16.73;;
57832;SDS011;43667;53.036;6.740;2022-11-20T00:15:23;23.48;;;16.42;;
57832;SDS011;43667;53.036;6.740;2022-11-20T00:17:49;24.40;;;16.42;;
57832;SDS011;43667;53.036;6.740;2022-11-20T00:20:15;21.30;;;15.38;;
57832;SDS011;43667;53.036;6.740;2022-11-20T00:22:40;23.38;;;15.93;;
57832;SDS011;43667;53.036;6.740;2022-11-20T00:25:06;19.83;;;15.05;;
57832;SDS011;43667;53.036;6.740;2022-11-20T00:27:32;23.20;;;14.23;;
57832;SDS011;43667;53.036;6.740;2022-11-20T00:29:57;20.35;;;14.95;;
57832;SDS011;43667;53.036;6.740;2022-11-20T00:32:23;20.10;;;15.13;;
57832;SDS011;43667;53.036;6.740;2022-11-20T00:34:48;20.90;;;15.18;;
57832;SDS011;43667;53.036;6.740;2022-11-20T00:37:14;20.67;;;14.35;;
57832;SDS011;43667;53.036;6.740;2022-11-20T00:39:39;20.67;;;14.15;;
57832;SDS011;43667;53.036;6.740;2022-11-20T00:42:05;19.80;;;14.57;;
57832;SDS011;43667;53.036;6.740;2022-11-20T00:44:30;20.17;;;14.32;;
57832;SDS011;43667;53.036;6.740;2022-11-20T00:46:56;19.13;;;13.98;;
57832;SDS011;43667;53.036;6.740;2022-11-20T00:49:21;18.30;;;13.95;;
57832;SDS011;43667;53.036;6.740;2022-11-20T00:51:47;20.88;;;15.13;;
57832;SDS011;43667;53.036;6.740;2022-11-20T00:54:13;20.67;;;14.82;;
57832;SDS011;43667;53.036;6.740;2022-11-20T00:56:38;20.45;;;15.02;;
57832;SDS011;43667;53.036;6.740;2022-11-20T00:59:05;19.08;;;14.68;;
57832;SDS011;43667;53.036;6.740;2022-11-20T01:01:30;23.67;;;15.65;;
57832;SDS011;43667;53.036;6.740;2022-11-20T01:03:57;20.75;;;15.18;;
57832;SDS011;43667;53.036;6.740;2022-11-20T01:08:53;21.88;;;15.25;;
57832;SDS011;43667;53.036;6.740;2022-11-20T01:11:21;21.10;;;15.40;;
57832;SDS011;43667;53.036;6.740;2022-11-20T01:13:49;22.85;;;16.45;;
57832;SDS011;43667;53.036;6.740;2022-11-20T01:16:17;21.52;;;15.43;;
57832;SDS011;43667;53.036;6.740;2022-11-20T01:18:45;19.98;;;15.63;;
57832;SDS011;43667;53.036;6.740;2022-11-20T01:21:13;20.23;;;15.80;;
57832;SDS011;43667;53.036;6.740;2022-11-20T01:23:42;18.48;;;15.05;;
57832;SDS011;43667;53.036;6.740;2022-11-20T01:26:09;23.48;;;17.00;;
57832;SDS011;43667;53.036;6.740;2022-11-20T01:28:36;22.85;;;17.20;;
57832;SDS011;43667;53.036;6.740;2022-11-20T01:31:10;23.95;;;16.05;;
57832;SDS011;43667;53.036;6.740;2022-11-20T01:33:38;22.85;;;16.23;;
57832;SDS011;43667;53.036;6.740;2022-11-20T01:36:05;23.05;;;16.23;;
57832;SDS011;43667;53.036;6.740;2022-11-20T01:38:31;24.02;;;16.98;;
57832;SDS011;43667;53.036;6.740;2022-11-20T01:40:56;22.50;;;17.15;;
57832;SDS011;43667;53.036;6.740;2022-11-20T01:43:22;21.95;;;16.20;;
57832;SDS011;43667;53.036;6.740;2022-11-20T01:48:37;20.35;;;15.57;;
57832;SDS011;43667;53.036;6.740;2022-11-20T01:51:19;22.10;;;15.98;;
57832;SDS011;43667;53.036;6.740;2022-11-20T01:53:53;20.13;;;15.80;;
57832;SDS011;43667;53.036;6.740;2022-11-20T01:56:22;20.02;;;15.90;;
57832;SDS011;43667;53.036;6.740;2022-11-20T01:58:50;21.30;;;15.73;;
57832;SDS011;43667;53.036;6.740;2022-11-20T02:01:20;20.70;;;16.08;;
57832;SDS011;43667;53.036;6.740;2022-11-20T02:03:46;27.08;;;17.05;;
57832;SDS011;43667;53.036;6.740;2022-11-20T02:08:52;21.00;;;15.93;;
57832;SDS011;43667;53.036;6.740;2022-11-20T02:11:19;20.45;;;16.15;;
57832;SDS011;43667;53.036;6.740;2022-11-20T02:13:46;19.70;;;16.02;;
57832;SDS011;43667;53.036;6.740;2022-11-20T02:18:49;21.42;;;15.77;;
57832;SDS011;43667;53.036;6.740;2022-11-20T02:24:03;20.00;;;14.63;;
57832;SDS011;43667;53.036;6.740;2022-11-20T02:26:36;20.27;;;15.75;;
57832;SDS011;43667;53.036;6.740;2022-11-20T02:29:19;19.90;;;15.00;;
57832;SDS011;43667;53.036;6.740;2022-11-20T02:31:50;18.65;;;15.40;;
57832;SDS011;43667;53.036;6.740;2022-11-20T02:34:18;19.52;;;15.27;;
57832;SDS011;43667;53.036;6.740;2022-11-20T02:36:43;18.45;;;14.48;;
57832;SDS011;43667;53.036;6.740;2022-11-20T02:39:10;21.08;;;14.88;;
57832;SDS011;43667;53.036;6.740;2022-11-20T02:41:38;17.42;;;13.52;;
57832;SDS011;43667;53.036;6.740;2022-11-20T02:44:04;17.70;;;13.30;;
57832;SDS011;43667;53.036;6.740;2022-11-20T02:46:30;19.10;;;13.30;;
57832;SDS011;43667;53.036;6.740;2022-11-20T02:48:56;20.05;;;14.63;;
57832;SDS011;43667;53.036;6.740;2022-11-20T02:51:22;18.08;;;13.70;;
57832;SDS011;43667;53.036;6.740;2022-11-20T02:53:49;16.92;;;13.50;;
57832;SDS011;43667;53.036;6.740;2022-11-20T02:56:14;17.42;;;14.38;;
57832;SDS011;43667;53.036;6.740;2022-11-20T02:58:40;16.48;;;12.95;;
57832;SDS011;43667;53.036;6.740;2022-11-20T03:01:06;17.25;;;14.55;;
57832;SDS011;43667;53.036;6.740;2022-11-20T03:03:31;18.35;;;14.90;;
57832;SDS011;43667;53.036;6.740;2022-11-20T03:06:00;17.30;;;14.23;;
57832;SDS011;43667;53.036;6.740;2022-11-20T03:08:26;19.45;;;14.07;;
57832;SDS011;43667;53.036;6.740;2022-11-20T03:10:52;17.58;;;13.85;;
57832;SDS011;43667;53.036;6.740;2022-11-20T03:13:17;18.50;;;13.95;;
57832;SDS011;43667;53.036;6.740;2022-11-20T03:15:43;17.50;;;14.40;;
57832;SDS011;43667;53.036;6.740;2022-11-20T03:18:08;17.40;;;13.88;;
57832;SDS011;43667;53.036;6.740;2022-11-20T03:20:34;17.80;;;14.20;;
57832;SDS011;43667;53.036;6.740;2022-11-20T03:23:00;18.55;;;14.20;;
57832;SDS011;43667;53.036;6.740;2022-11-20T03:25:25;18.65;;;14.07;;
57832;SDS011;43667;53.036;6.740;2022-11-20T03:27:51;20.27;;;14.48;;
57832;SDS011;43667;53.036;6.740;2022-11-20T03:30:17;17.05;;;13.98;;
57832;SDS011;43667;53.036;6.740;2022-11-20T03:32:42;19.15;;;14.65;;
57832;SDS011;43667;53.036;6.740;2022-11-20T03:35:09;19.27;;;14.52;;
57832;SDS011;43667;53.036;6.740;2022-11-20T03:37:34;20.42;;;14.93;;
57832;SDS011;43667;53.036;6.740;2022-11-20T03:40:00;18.48;;;14.93;;
57832;SDS011;43667;53.036;6.740;2022-11-20T03:42:26;19.20;;;14.38;;
57832;SDS011;43667;53.036;6.740;2022-11-20T03:47:35;19.00;;;13.80;;
57832;SDS011;43667;53.036;6.740;2022-11-20T03:50:01;19.73;;;14.80;;
57832;SDS011;43667;53.036;6.740;2022-11-20T03:52:26;17.17;;;14.13;;
57832;SDS011;43667;53.036;6.740;2022-11-20T03:54:52;19.60;;;14.25;;
57832;SDS011;43667;53.036;6.740;2022-11-20T03:57:17;17.50;;;13.50;;
57832;SDS011;43667;53.036;6.740;2022-11-20T03:59:43;15.57;;;12.77;;
57832;SDS011;43667;53.036;6.740;2022-11-20T04:02:08;17.17;;;13.45;;
57832;SDS011;43667;53.036;6.740;2022-11-20T04:04:34;16.48;;;14.07;;
57832;SDS011;43667;53.036;6.740;2022-11-20T04:07:00;15.63;;;12.35;;
57832;SDS011;43667;53.036;6.740;2022-11-20T04:09:25;17.27;;;13.98;;
57832;SDS011;43667;53.036;6.740;2022-11-20T04:11:51;17.25;;;13.57;;
57832;SDS011;43667;53.036;6.740;2022-11-20T04:14:16;16.95;;;14.30;;
57832;SDS011;43667;53.036;6.740;2022-11-20T04:16:42;17.35;;;14.13;;
57832;SDS011;43667;53.036;6.740;2022-11-20T04:19:12;19.77;;;14.40;;
57832;SDS011;43667;53.036;6.740;2022-11-20T04:21:39;19.30;;;14.77;;
57832;SDS011;43667;53.036;6.740;2022-11-20T04:24:05;17.40;;;14.23;;
57832;SDS011;43667;53.036;6.740;2022-11-20T04:26:31;16.77;;;13.57;;
57832;SDS011;43667;53.036;6.740;2022-11-20T04:28:58;19.17;;;14.23;;
57832;SDS011;43667;53.036;6.740;2022-11-20T04:31:25;18.55;;;14.30;;
57832;SDS011;43667;53.036;6.740;2022-11-20T04:33:52;16.30;;;14.05;;
57832;SDS011;43667;53.036;6.740;2022-11-20T04:36:22;20.08;;;14.52;;
57832;SDS011;43667;53.036;6.740;2022-11-20T04:39:11;19.33;;;14.90;;
57832;SDS011;43667;53.036;6.740;2022-11-20T04:41:38;17.77;;;14.80;;
57832;SDS011;43667;53.036;6.740;2022-11-20T04:44:04;18.25;;;14.52;;
57832;SDS011;43667;53.036;6.740;2022-11-20T04:46:31;17.80;;;13.98;;
57832;SDS011;43667;53.036;6.740;2022-11-20T04:49:07;18.77;;;14.48;;
57832;SDS011;43667;53.036;6.740;2022-11-20T04:51:33;20.60;;;14.77;;
57832;SDS011;43667;53.036;6.740;2022-11-20T04:53:59;18.52;;;14.48;;
57832;SDS011;43667;53.036;6.740;2022-11-20T04:56:25;17.27;;;14.30;;
57832;SDS011;43667;53.036;6.740;2022-11-20T04:58:51;17.60;;;14.27;;
57832;SDS011;43667;53.036;6.740;2022-11-20T05:01:21;21.38;;;14.73;;
57832;SDS011;43667;53.036;6.740;2022-11-20T05:03:48;18.17;;;14.98;;
57832;SDS011;43667;53.036;6.740;2022-11-20T05:06:15;18.65;;;15.35;;
57832;SDS011;43667;53.036;6.740;2022-11-20T05:08:43;21.02;;;15.73;;
57832;SDS011;43667;53.036;6.740;2022-11-20T05:11:12;21.25;;;15.60;;
57832;SDS011;43667;53.036;6.740;2022-11-20T05:13:40;20.00;;;15.60;;
57832;SDS011;43667;53.036;6.740;2022-11-20T05:16:13;18.88;;;14.35;;
57832;SDS011;43667;53.036;6.740;2022-11-20T05:18:40;18.38;;;14.43;;
57832;SDS011;43667;53.036;6.740;2022-11-20T05:21:07;19.27;;;14.98;;
57832;SDS011;43667;53.036;6.740;2022-11-20T05:23:33;17.40;;;13.63;;
57832;SDS011;43667;53.036;6.740;2022-11-20T05:25:59;16.63;;;14.48;;
57832;SDS011;43667;53.036;6.740;2022-11-20T05:28:26;21.52;;;15.30;;
57832;SDS011;43667;53.036;6.740;2022-11-20T05:30:53;20.13;;;14.82;;
57832;SDS011;43667;53.036;6.740;2022-11-20T05:33:19;19.45;;;15.10;;
57832;SDS011;43667;53.036;6.740;2022-11-20T05:35:45;15.38;;;13.32;;
57832;SDS011;43667;53.036;6.740;2022-11-20T05:38:11;17.27;;;13.80;;
57832;SDS011;43667;53.036;6.740;2022-11-20T05:40:36;17.48;;;13.45;;
57832;SDS011;43667;53.036;6.740;2022-11-20T05:43:02;16.92;;;13.93;;
57832;SDS011;43667;53.036;6.740;2022-11-20T05:45:28;17.48;;;14.73;;
57832;SDS011;43667;53.036;6.740;2022-11-20T05:47:56;16.83;;;13.57;;
57832;SDS011;43667;53.036;6.740;2022-11-20T05:50:24;19.92;;;14.45;;
57832;SDS011;43667;53.036;6.740;2022-11-20T05:52:49;18.40;;;14.98;;
57832;SDS011;43667;53.036;6.740;2022-11-20T05:55:15;17.83;;;14.15;;
57832;SDS011;43667;53.036;6.740;2022-11-20T05:57:41;18.92;;;14.40;;
57832;SDS011;43667;53.036;6.740;2022-11-20T06:00:06;18.63;;;15.13;;
57832;SDS011;43667;53.036;6.740;2022-11-20T06:02:34;19.40;;;15.10;;
57832;SDS011;43667;53.036;6.740;2022-11-20T06:05:01;17.23;;;14.02;;
57832;SDS011;43667;53.036;6.740;2022-11-20T06:07:26;16.85;;;13.57;;
57832;SDS011;43667;53.036;6.740;2022-11-20T06:09:52;15.40;;;13.32;;
57832;SDS011;43667;53.036;6.740;2022-11-20T06:12:17;17.40;;;14.25;;
57832;SDS011;43667;53.036;6.740;2022-11-20T06:14:43;17.58;;;14.07;;
57832;SDS011;43667;53.036;6.740;2022-11-20T06:17:08;18.08;;;13.88;;
57832;SDS011;43667;53.036;6.740;2022-11-20T06:19:34;16.95;;;13.13;;
57832;SDS011;43667;53.036;6.740;2022-11-20T06:21:59;18.95;;;14.23;;
57832;SDS011;43667;53.036;6.740;2022-11-20T06:24:25;16.60;;;13.35;;
57832;SDS011;43667;53.036;6.740;2022-11-20T06:26:50;16.27;;;14.40;;
57832;SDS011;43667;53.036;6.740;2022-11-20T06:29:16;18.08;;;13.45;;
57832;SDS011;43667;53.036;6.740;2022-11-20T06:31:41;17.42;;;14.27;;
57832;SDS011;43667;53.036;6.740;2022-11-20T06:34:07;16.77;;;13.43;;
57832;SDS011;43667;53.036;6.740;2022-11-20T06:36:33;17.00;;;13.00;;
57832;SDS011;43667;53.036;6.740;2022-11-20T06:38:59;17.15;;;12.50;;
57832;SDS011;43667;53.036;6.740;2022-11-20T06:41:25;18.95;;;13.10;;
57832;SDS011;43667;53.036;6.740;2022-11-20T06:43:50;17.48;;;12.77;;
57832;SDS011;43667;53.036;6.740;2022-11-20T06:46:17;17.08;;;12.52;;
57832;SDS011;43667;53.036;6.740;2022-11-20T06:48:43;16.50;;;12.45;;
57832;SDS011;43667;53.036;6.740;2022-11-20T06:51:09;16.45;;;12.65;;
57832;SDS011;43667;53.036;6.740;2022-11-20T06:53:35;15.82;;;12.10;;
57832;SDS011;43667;53.036;6.740;2022-11-20T06:56:01;16.98;;;13.02;;
57832;SDS011;43667;53.036;6.740;2022-11-20T06:58:27;16.23;;;12.90;;
57832;SDS011;43667;53.036;6.740;2022-11-20T07:00:57;15.77;;;12.43;;
57832;SDS011;43667;53.036;6.740;2022-11-20T07:03:24;17.55;;;13.25;;
57832;SDS011;43667;53.036;6.740;2022-11-20T07:05:49;15.70;;;12.25;;
57832;SDS011;43667;53.036;6.740;2022-11-20T07:08:15;17.30;;;12.70;;
57832;SDS011;43667;53.036;6.740;2022-11-20T07:10:40;16.52;;;12.10;;
57832;SDS011;43667;53.036;6.740;2022-11-20T07:13:06;15.70;;;11.82;;
57832;SDS011;43667;53.036;6.740;2022-11-20T07:15:32;15.65;;;12.63;;
57832;SDS011;43667;53.036;6.740;2022-11-20T07:18:00;17.95;;;12.85;;
57832;SDS011;43667;53.036;6.740;2022-11-20T07:20:26;16.10;;;12.55;;
57832;SDS011;43667;53.036;6.740;2022-11-20T07:22:53;15.85;;;12.77;;
57832;SDS011;43667;53.036;6.740;2022-11-20T07:25:25;15.10;;;12.07;;
57832;SDS011;43667;53.036;6.740;2022-11-20T07:27:52;15.68;;;12.32;;
57832;SDS011;43667;53.036;6.740;2022-11-20T07:30:22;16.98;;;11.88;;
57832;SDS011;43667;53.036;6.740;2022-11-20T07:32:50;15.57;;;12.25;;
57832;SDS011;43667;53.036;6.740;2022-11-20T07:35:16;13.57;;;11.48;;
57832;SDS011;43667;53.036;6.740;2022-11-20T07:37:42;14.95;;;11.95;;
57832;SDS011;43667;53.036;6.740;2022-11-20T07:40:08;16.35;;;12.60;;
57832;SDS011;43667;53.036;6.740;2022-11-20T07:42:33;16.25;;;11.70;;
57832;SDS011;43667;53.036;6.740;2022-11-20T07:44:59;17.33;;;12.63;;
57832;SDS011;43667;53.036;6.740;2022-11-20T07:47:24;13.77;;;11.75;;
57832;SDS011;43667;53.036;6.740;2022-11-20T07:49:50;14.55;;;11.85;;
57832;SDS011;43667;53.036;6.740;2022-11-20T07:52:16;14.90;;;11.50;;
57832;SDS011;43667;53.036;6.740;2022-11-20T07:54:41;14.50;;;11.93;;
57832;SDS011;43667;53.036;6.740;2022-11-20T07:57:07;12.13;;;10.82;;
57832;SDS011;43667;53.036;6.740;2022-11-20T07:59:32;13.32;;;11.73;;
57832;SDS011;43667;53.036;6.740;2022-11-20T08:01:58;13.88;;;11.05;;
57832;SDS011;43667;53.036;6.740;2022-11-20T08:04:23;15.73;;;10.70;;
57832;SDS011;43667;53.036;6.740;2022-11-20T08:06:49;15.00;;;10.77;;
57832;SDS011;43667;53.036;6.740;2022-11-20T08:09:16;12.55;;;10.73;;
57832;SDS011;43667;53.036;6.740;2022-11-20T08:11:42;13.90;;;11.27;;
57832;SDS011;43667;53.036;6.740;2022-11-20T08:14:26;13.80;;;11.63;;
57832;SDS011;43667;53.036;6.740;2022-11-20T08:16:52;14.57;;;11.35;;
57832;SDS011;43667;53.036;6.740;2022-11-20T08:19:18;13.13;;;10.63;;
57832;SDS011;43667;53.036;6.740;2022-11-20T08:21:44;13.93;;;10.68;;
57832;SDS011;43667;53.036;6.740;2022-11-20T08:24:10;13.63;;;11.23;;
57832;SDS011;43667;53.036;6.740;2022-11-20T08:26:37;14.05;;;10.55;;
57832;SDS011;43667;53.036;6.740;2022-11-20T08:29:04;15.68;;;11.13;;
57832;SDS011;43667;53.036;6.740;2022-11-20T08:31:30;12.20;;;10.43;;
57832;SDS011;43667;53.036;6.740;2022-11-20T08:33:56;17.27;;;11.30;;
57832;SDS011;43667;53.036;6.740;2022-11-20T08:36:22;14.10;;;11.18;;
57832;SDS011;43667;53.036;6.740;2022-11-20T08:38:49;14.65;;;10.75;;
57832;SDS011;43667;53.036;6.740;2022-11-20T08:41:17;12.77;;;10.50;;
57832;SDS011;43667;53.036;6.740;2022-11-20T08:44:07;11.93;;;10.65;;
57832;SDS011;43667;53.036;6.740;2022-11-20T08:49:00;11.55;;;9.75;;
57832;SDS011;43667;53.036;6.740;2022-11-20T08:51:25;13.43;;;11.32;;
57832;SDS011;43667;53.036;6.740;2022-11-20T08:53:51;15.18;;;11.80;;
57832;SDS011;43667;53.036;6.740;2022-11-20T08:56:17;19.15;;;14.93;;
57832;SDS011;43667;53.036;6.740;2022-11-20T08:58:43;26.35;;;23.02;;
57832;SDS011;43667;53.036;6.740;2022-11-20T09:01:08;12.15;;;10.48;;
57832;SDS011;43667;53.036;6.740;2022-11-20T09:03:34;12.82;;;11.13;;
57832;SDS011;43667;53.036;6.740;2022-11-20T09:06:00;13.25;;;10.73;;
57832;SDS011;43667;53.036;6.740;2022-11-20T09:08:28;12.80;;;10.27;;
57832;SDS011;43667;53.036;6.740;2022-11-20T09:10:54;23.77;;;18.58;;
57832;SDS011;43667;53.036;6.740;2022-11-20T09:13:21;14.88;;;11.85;;
57832;SDS011;43667;53.036;6.740;2022-11-20T09:15:47;12.40;;;10.48;;
57832;SDS011;43667;53.036;6.740;2022-11-20T09:18:17;12.25;;;10.30;;
57832;SDS011;43667;53.036;6.740;2022-11-20T09:20:43;11.55;;;9.65;;
57832;SDS011;43667;53.036;6.740;2022-11-20T09:23:09;14.07;;;11.18;;
57832;SDS011;43667;53.036;6.740;2022-11-20T09:25:34;12.65;;;10.43;;
57832;SDS011;43667;53.036;6.740;2022-11-20T09:28:00;12.68;;;10.20;;
57832;SDS011;43667;53.036;6.740;2022-11-20T09:30:26;11.50;;;10.30;;
57832;SDS011;43667;53.036;6.740;2022-11-20T09:32:52;16.65;;;9.98;;
57832;SDS011;43667;53.036;6.740;2022-11-20T09:35:17;11.07;;;9.77;;
57832;SDS011;43667;53.036;6.740;2022-11-20T09:37:43;11.57;;;9.60;;
57832;SDS011;43667;53.036;6.740;2022-11-20T09:40:22;14.40;;;10.07;;
57832;SDS011;43667;53.036;6.740;2022-11-20T09:46:05;11.10;;;9.57;;
57832;SDS011;43667;53.036;6.740;2022-11-20T09:57:11;10.68;;;8.90;;
57832;SDS011;43667;53.036;6.740;2022-11-20T09:59:44;12.68;;;9.35;;
57832;SDS011;43667;53.036;6.740;2022-11-20T10:04:43;11.23;;;9.13;;
57832;SDS011;43667;53.036;6.740;2022-11-20T10:07:19;10.65;;;9.13;;
57832;SDS011;43667;53.036;6.740;2022-11-20T10:09:52;11.30;;;10.10;;
57832;SDS011;43667;53.036;6.740;2022-11-20T10:12:24;10.05;;;8.80;;
57832;SDS011;43667;53.036;6.740;2022-11-20T10:15:24;11.93;;;9.35;;
57832;SDS011;43667;53.036;6.740;2022-11-20T10:18:05;10.52;;;9.43;;
57832;SDS011;43667;53.036;6.740;2022-11-20T10:20:39;10.93;;;9.48;;
57832;SDS011;43667;53.036;6.740;2022-11-20T10:24:21;12.18;;;9.43;;
57832;SDS011;43667;53.036;6.740;2022-11-20T10:26:37;10.50;;;8.85;;
57832;SDS011;43667;53.036;6.740;2022-11-20T10:29:28;11.45;;;9.60;;
57832;SDS011;43667;53.036;6.740;2022-11-20T10:32:03;11.65;;;9.35;;
57832;SDS011;43667;53.036;6.740;2022-11-20T10:37:24;10.93;;;9.23;;
57832;SDS011;43667;53.036;6.740;2022-11-20T10:42:53;9.63;;;8.05;;
57832;SDS011;43667;53.036;6.740;2022-11-20T10:47:54;11.27;;;9.23;;
57832;SDS011;43667;53.036;6.740;2022-11-20T10:50:32;11.65;;;9.43;;
57832;SDS011;43667;53.036;6.740;2022-11-20T10:53:05;14.65;;;11.23;;
57832;SDS011;43667;53.036;6.740;2022-11-20T10:55:46;9.32;;;8.10;;
57832;SDS011;43667;53.036;6.740;2022-11-20T10:58:30;10.40;;;8.85;;
57832;SDS011;43667;53.036;6.740;2022-11-20T11:01:17;8.48;;;7.43;;
57832;SDS011;43667;53.036;6.740;2022-11-20T11:03:48;9.55;;;6.82;;
57832;SDS011;43667;53.036;6.740;2022-11-20T11:06:21;9.18;;;7.22;;
57832;SDS011;43667;53.036;6.740;2022-11-20T11:08:47;8.63;;;6.93;;
57832;SDS011;43667;53.036;6.740;2022-11-20T11:11:24;8.20;;;6.70;;
57832;SDS011;43667;53.036;6.740;2022-11-20T11:14:08;8.20;;;7.30;;
57832;SDS011;43667;53.036;6.740;2022-11-20T11:16:35;8.93;;;7.18;;
57832;SDS011;43667;53.036;6.740;2022-11-20T11:19:13;8.00;;;7.03;;
57832;SDS011;43667;53.036;6.740;2022-11-20T11:21:44;7.72;;;6.88;;
57832;SDS011;43667;53.036;6.740;2022-11-20T11:24:19;8.68;;;7.25;;
57832;SDS011;43667;53.036;6.740;2022-11-20T11:29:29;8.30;;;6.45;;
57832;SDS011;43667;53.036;6.740;2022-11-20T11:32:03;7.40;;;6.47;;
57832;SDS011;43667;53.036;6.740;2022-11-20T11:34:33;9.73;;;7.30;;
57832;SDS011;43667;53.036;6.740;2022-11-20T11:37:00;9.90;;;7.53;;
57832;SDS011;43667;53.036;6.740;2022-11-20T11:39:28;9.15;;;6.25;;
57832;SDS011;43667;53.036;6.740;2022-11-20T11:41:56;8.30;;;6.55;;
57832;SDS011;43667;53.036;6.740;2022-11-20T11:44:24;9.93;;;6.75;;
57832;SDS011;43667;53.036;6.740;2022-11-20T11:47:21;7.82;;;5.47;;
57832;SDS011;43667;53.036;6.740;2022-11-20T11:50:00;5.65;;;4.95;;
57832;SDS011;43667;53.036;6.740;2022-11-20T11:52:46;5.95;;;4.80;;
57832;SDS011;43667;53.036;6.740;2022-11-20T11:58:16;5.38;;;4.65;;
57832;SDS011;43667;53.036;6.740;2022-11-20T12:00:58;6.22;;;4.22;;
57832;SDS011;43667;53.036;6.740;2022-11-20T12:03:39;4.85;;;4.35;;
57832;SDS011;43667;53.036;6.740;2022-11-20T12:06:10;5.07;;;4.20;;
57832;SDS011;43667;53.036;6.740;2022-11-20T12:11:58;5.35;;;4.38;;
57832;SDS011;43667;53.036;6.740;2022-11-20T12:14:14;6.13;;;4.55;;
57832;SDS011;43667;53.036;6.740;2022-11-20T12:16:49;15.27;;;7.50;;
57832;SDS011;43667;53.036;6.740;2022-11-20T12:19:17;32.35;;;19.42;;
57832;SDS011;43667;53.036;6.740;2022-11-20T12:21:47;7.32;;;5.60;;
57832;SDS011;43667;53.036;6.740;2022-11-20T12:27:40;6.55;;;4.57;;
57832;SDS011;43667;53.036;6.740;2022-11-20T12:30:16;5.95;;;5.30;;
57832;SDS011;43667;53.036;6.740;2022-11-20T12:33:01;6.00;;;4.97;;
57832;SDS011;43667;53.036;6.740;2022-11-20T12:44:55;5.50;;;4.60;;
57832;SDS011;43667;53.036;6.740;2022-11-20T12:53:04;6.85;;;5.43;;
57832;SDS011;43667;53.036;6.740;2022-11-20T12:55:58;6.60;;;5.97;;
57832;SDS011;43667;53.036;6.740;2022-11-20T13:01:05;9.55;;;6.20;;
57832;SDS011;43667;53.036;6.740;2022-11-20T13:04:30;8.57;;;6.38;;
57832;SDS011;43667;53.036;6.740;2022-11-20T13:07:23;10.30;;;6.78;;
57832;SDS011;43667;53.036;6.740;2022-11-20T13:09:49;7.80;;;6.72;;
57832;SDS011;43667;53.036;6.740;2022-11-20T13:12:17;8.50;;;6.40;;
57832;SDS011;43667;53.036;6.740;2022-11-20T13:15:16;9.75;;;8.70;;
57832;SDS011;43667;53.036;6.740;2022-11-20T13:20:25;8.35;;;6.50;;
57832;SDS011;43667;53.036;6.740;2022-11-20T13:22:52;7.30;;;6.18;;
57832;SDS011;43667;53.036;6.740;2022-11-20T13:25:26;7.47;;;6.65;;
57832;SDS011;43667;53.036;6.740;2022-11-20T13:27:53;8.15;;;6.30;;
57832;SDS011;43667;53.036;6.740;2022-11-20T13:30:21;9.05;;;5.82;;
57832;SDS011;43667;53.036;6.740;2022-11-20T13:32:57;11.48;;;5.78;;
57832;SDS011;43667;53.036;6.740;2022-11-20T13:35:54;7.13;;;5.93;;
57832;SDS011;43667;53.036;6.740;2022-11-20T13:38:22;8.88;;;6.28;;
57832;SDS011;43667;53.036;6.740;2022-11-20T13:41:00;7.60;;;6.75;;
57832;SDS011;43667;53.036;6.740;2022-11-20T13:43:49;6.78;;;6.07;;
57832;SDS011;43667;53.036;6.740;2022-11-20T13:46:14;8.73;;;7.35;;
57832;SDS011;43667;53.036;6.740;2022-11-20T13:48:42;9.57;;;7.20;;
57832;SDS011;43667;53.036;6.740;2022-11-20T13:51:15;7.93;;;6.68;;
57832;SDS011;43667;53.036;6.740;2022-11-20T13:54:16;9.10;;;7.65;;
57832;SDS011;43667;53.036;6.740;2022-11-20T13:56:53;8.30;;;7.43;;
57832;SDS011;43667;53.036;6.740;2022-11-20T13:59:40;17.85;;;12.73;;
57832;SDS011;43667;53.036;6.740;2022-11-20T14:02:21;16.55;;;12.70;;
57832;SDS011;43667;53.036;6.740;2022-11-20T14:04:51;11.90;;;9.55;;
57832;SDS011;43667;53.036;6.740;2022-11-20T14:07:18;9.98;;;7.80;;
57832;SDS011;43667;53.036;6.740;2022-11-20T14:09:51;10.35;;;8.23;;
57832;SDS011;43667;53.036;6.740;2022-11-20T14:12:22;10.30;;;7.53;;
57832;SDS011;43667;53.036;6.740;2022-11-20T14:14:53;9.05;;;7.47;;
57832;SDS011;43667;53.036;6.740;2022-11-20T14:17:20;8.23;;;6.80;;
57832;SDS011;43667;53.036;6.740;2022-11-20T14:19:48;8.77;;;7.30;;
57832;SDS011;43667;53.036;6.740;2022-11-20T14:22:20;8.70;;;7.80;;
57832;SDS011;43667;53.036;6.740;2022-11-20T14:24:48;9.40;;;8.07;;
57832;SDS011;43667;53.036;6.740;2022-11-20T14:27:25;9.18;;;7.43;;
57832;SDS011;43667;53.036;6.740;2022-11-20T14:29:51;10.15;;;8.27;;
57832;SDS011;43667;53.036;6.740;2022-11-20T14:32:17;11.88;;;9.18;;
57832;SDS011;43667;53.036;6.740;2022-11-20T14:34:45;16.27;;;12.88;;
57832;SDS011;43667;53.036;6.740;2022-11-20T14:37:17;12.82;;;9.75;;
57832;SDS011;43667;53.036;6.740;2022-11-20T14:39:54;11.60;;;8.57;;
57832;SDS011;43667;53.036;6.740;2022-11-20T14:42:24;8.98;;;7.97;;
57832;SDS011;43667;53.036;6.740;2022-11-20T14:44:52;12.13;;;8.48;;
57832;SDS011;43667;53.036;6.740;2022-11-20T14:47:21;13.48;;;9.63;;
57832;SDS011;43667;53.036;6.740;2022-11-20T14:49:50;14.23;;;11.15;;
57832;SDS011;43667;53.036;6.740;2022-11-20T14:52:18;11.93;;;9.95;;
57832;SDS011;43667;53.036;6.740;2022-11-20T14:54:49;11.55;;;9.45;;
57832;SDS011;43667;53.036;6.740;2022-11-20T14:57:42;11.18;;;9.02;;
57832;SDS011;43667;53.036;6.740;2022-11-20T15:02:43;15.38;;;10.13;;
57832;SDS011;43667;53.036;6.740;2022-11-20T15:05:10;16.60;;;11.10;;
57832;SDS011;43667;53.036;6.740;2022-11-20T15:07:40;13.57;;;9.82;;
57832;SDS011;43667;53.036;6.740;2022-11-20T15:10:11;16.75;;;11.82;;
57832;SDS011;43667;53.036;6.740;2022-11-20T15:12:50;22.25;;;15.07;;
57832;SDS011;43667;53.036;6.740;2022-11-20T15:18:14;14.27;;;10.85;;
57832;SDS011;43667;53.036;6.740;2022-11-20T15:20:42;15.35;;;10.27;;
57832;SDS011;43667;53.036;6.740;2022-11-20T15:23:12;11.52;;;9.93;;
57832;SDS011;43667;53.036;6.740;2022-11-20T15:25:40;12.95;;;10.50;;
57832;SDS011;43667;53.036;6.740;2022-11-20T15:28:16;14.55;;;11.07;;
57832;SDS011;43667;53.036;6.740;2022-11-20T15:30:56;15.88;;;11.30;;
57832;SDS011;43667;53.036;6.740;2022-11-20T15:33:22;17.52;;;12.60;;
57832;SDS011;43667;53.036;6.740;2022-11-20T15:35:48;13.82;;;10.88;;
57832;SDS011;43667;53.036;6.740;2022-11-20T15:38:13;13.32;;;10.07;;
57832;SDS011;43667;53.036;6.740;2022-11-20T15:40:39;12.05;;;10.35;;
57832;SDS011;43667;53.036;6.740;2022-11-20T15:43:05;13.38;;;10.45;;
57832;SDS011;43667;53.036;6.740;2022-11-20T15:45:42;13.13;;;10.48;;
57832;SDS011;43667;53.036;6.740;2022-11-20T15:48:24;18.05;;;12.35;;
57832;SDS011;43667;53.036;6.740;2022-11-20T15:53:36;14.25;;;11.88;;
57832;SDS011;43667;53.036;6.740;2022-11-20T15:56:02;14.60;;;11.07;;
57832;SDS011;43667;53.036;6.740;2022-11-20T15:58:29;14.02;;;11.38;;
57832;SDS011;43667;53.036;6.740;2022-11-20T16:00:55;13.88;;;10.77;;
57832;SDS011;43667;53.036;6.740;2022-11-20T16:03:20;16.90;;;11.40;;